.
WxDataArchive / Data Records for 2013-01-13
2013-01-12 January 2013 2013-01-14

Data Records for Sunday, 13 January 2013

Time	Temp	Chill	HIndex	Humid	Dewpt	 Wind 	HiWind	WindDir	Rain 	Barom 
-----	----	-----	------	-----	-----	------	------	-------	-----	----- 
00:00	52.3	52.3	52.3	96	51.2	0	3	90	0.01	29.758 
00:05	52.3	52.3	52.3	96	51.2	0	1	90	0.01	29.758 
00:10	52.5	52.5	52.5	96	51.4	0	1	90	0.01	29.758 
00:15	52.3	52.3	52.3	96	51.2	0	2	90	0.01	29.736 
00:20	52.3	52.3	52.3	96	51.2	0	2	90	0.02	29.736 
00:25	52.3	52.3	52.3	96	51.2	0	2	68	0.01	29.736 
00:30	52.2	52.2	52.2	96	51.1	0	3	135	0.01	29.729 
00:35	52.0	52.0	52.0	96	50.9	0	1	112	0.01	29.729 
00:40	52.0	52.0	52.0	96	50.9	0	2	22	0.01	29.729 
00:45	51.9	51.9	51.9	96	50.8	0	2	22	0.01	29.717 
00:50	51.9	51.9	51.9	96	50.8	0	2	0	0.01	29.717 
00:55	51.7	51.7	51.7	96	50.6	0	3	0	0.01	29.717 
01:00	51.7	51.7	51.7	96	50.6	1	3	0	0.00	29.726 
01:05	51.7	51.7	51.7	96	50.6	1	3	292	0.01	29.726 
01:10	51.6	51.6	51.6	96	50.5	1	3	292	0.00	29.726 
01:15	51.4	51.4	51.4	96	50.3	0	2	315	0.01	29.723 
01:20	51.3	51.3	51.3	96	50.2	1	3	338	0.01	29.723 
01:25	51.1	51.1	51.1	96	50.0	1	2	338	0.01	29.723 
01:30	51.0	51.0	51.0	96	49.9	1	4	338	0.00	29.734 
01:35	50.8	50.8	50.8	96	49.7	2	5	270	0.01	29.734 
01:40	50.7	50.7	50.7	96	49.6	1	5	270	0.01	29.734 
01:45	50.5	50.5	50.5	96	49.4	1	2	338	0.01	29.741 
01:50	50.4	50.4	50.4	96	49.3	1	4	338	0.01	29.741 
01:55	50.2	50.2	50.2	96	49.1	1	4	45	0.01	29.741 
02:00	49.9	49.9	49.9	96	48.8	1	5	0	0.00	29.718 
02:05	49.8	49.8	49.8	96	48.7	1	2	0	0.01	29.718 
02:10	49.6	49.6	49.6	96	48.5	2	4	338	0.01	29.718 
02:15	49.4	49.4	49.4	96	48.3	1	3	0	0.01	29.729 
02:20	49.1	49.1	49.1	96	48.0	1	4	0	0.01	29.729 
02:25	48.8	48.8	48.8	96	47.7	1	7	45	0.00	29.729 
02:30	48.6	48.6	48.6	96	47.5	1	3	0	0.01	29.715 
02:35	48.3	48.3	48.3	96	47.2	1	4	338	0.01	29.715 
02:40	47.7	47.7	47.7	96	46.6	1	5	338	0.01	29.715 
02:45	47.3	47.3	47.3	96	46.2	1	4	315	0.01	29.722 
02:50	46.7	46.7	46.7	96	45.6	1	5	0	0.01	29.722 
02:55	46.4	46.4	46.4	96	45.3	2	5	338	0.01	29.722 
03:00	45.8	45.8	45.8	96	44.7	3	7	315	0.01	29.736 
03:05	45.4	45.4	45.4	96	44.3	2	5	338	0.01	29.736 
03:10	45.2	45.2	45.2	96	44.1	2	6	0	0.00	29.736 
03:15	44.9	44.9	44.9	96	43.8	1	4	338	0.01	29.739 
03:20	44.8	44.8	44.8	96	43.7	2	6	0	0.01	29.739 
03:25	44.6	44.6	44.6	96	43.5	1	3	315	0.01	29.739 
03:30	44.3	44.3	44.3	96	43.2	1	3	338	0.01	29.754 
03:35	44.2	44.2	44.2	96	43.1	0	1	292	0.01	29.754 
03:40	43.9	43.9	43.9	96	42.8	0	2	292	0.00	29.754 
03:45	43.6	43.6	43.6	95	42.3	0	1	292	0.01	29.752 
03:50	43.5	43.5	43.5	95	42.2	0	2	292	0.01	29.752 
03:55	43.3	43.3	43.3	96	42.2	1	4	112	0.01	29.752 
04:00	43.2	43.2	43.2	96	42.1	0	3	112	0.01	29.718 
04:05	43.2	43.2	43.2	96	42.1	0	2	112	0.01	29.718 
04:10	43.1	43.1	43.1	96	42.0	1	5	338	0.00	29.718 
04:15	42.8	42.8	42.8	96	41.7	2	4	270	0.01	29.752 
04:20	42.6	42.6	42.6	96	41.5	1	4	270	0.01	29.752 
04:25	42.3	42.3	42.3	95	41.0	2	5	292	0.00	29.752 
04:30	41.9	41.9	41.9	95	40.6	2	6	292	0.01	29.783 
04:35	41.3	41.3	41.3	95	40.0	2	6	292	0.01	29.783 
04:40	40.8	40.8	40.8	95	39.5	3	6	315	0.00	29.783 
04:45	40.3	40.3	40.3	95	39.0	2	6	338	0.00	29.802 
04:50	40.1	40.1	40.1	95	38.8	1	4	338	0.00	29.802 
04:55	39.9	39.9	39.9	95	38.6	1	3	248	0.01	29.802 
05:00	39.6	39.6	39.6	95	38.3	1	5	292	0.00	29.771 
05:05	39.5	39.5	39.5	95	38.2	1	4	315	0.01	29.771 
05:10	39.2	39.2	39.2	95	37.9	3	9	338	0.00	29.771 
05:15	38.9	38.9	38.9	95	37.6	3	7	315	0.01	29.810 
05:20	38.8	38.8	38.8	95	37.5	2	6	292	0.00	29.810 
05:25	38.5	38.5	38.5	95	37.2	2	6	0	0.00	29.810 
05:30	38.2	38.2	38.2	95	36.9	1	4	338	0.00	29.787 
05:35	38.2	38.2	38.2	95	36.9	1	4	338	0.00	29.787 
05:40	38.0	38.0	38.0	95	36.7	1	3	292	0.00	29.787 
05:45	38.0	38.0	38.0	95	36.7	1	4	338	0.00	29.801 
05:50	37.9	37.9	37.9	95	36.6	1	4	0	0.00	29.801 
05:55	37.9	37.9	37.9	95	36.6	0	2	315	0.00	29.801 
06:00	37.9	37.9	37.9	95	36.6	0	4	45	0.00	29.786 
06:05	37.9	37.9	37.9	95	36.6	1	3	315	0.00	29.786 
06:10	37.9	37.9	37.9	95	36.6	0	2	315	0.00	29.786 
06:15	37.9	37.9	37.9	95	36.6	0	3	338	0.00	29.794 
06:20	37.9	37.9	37.9	95	36.6	0	1	338	0.00	29.794 
06:25	38.0	38.0	38.0	95	36.7	1	3	338	0.00	29.794 
06:30	38.0	38.0	38.0	95	36.7	0	3	292	0.00	29.813 
06:35	38.0	38.0	38.0	95	36.7	1	2	292	0.00	29.813 
06:40	38.2	38.2	38.2	94	36.6	1	4	292	0.00	29.813 
06:45	38.2	38.2	38.2	94	36.6	0	2	292	0.00	29.824 
06:50	38.2	38.2	38.2	94	36.6	0	3	292	0.00	29.824 
06:55	38.2	38.2	38.2	94	36.6	0	2	292	0.00	29.824 
07:00	38.3	38.3	38.3	94	36.7	0	3	292	0.00	29.823 
07:05	38.3	38.3	38.3	94	36.7	0	0	---	0.00	29.823 
07:10	38.3	38.3	38.3	94	36.7	0	1	292	0.00	29.823 
07:15	38.3	38.3	38.3	94	36.7	0	2	292	0.00	29.857 
07:20	38.3	38.3	38.3	94	36.7	0	0	---	0.00	29.857 
07:25	38.3	38.3	38.3	94	36.7	0	1	292	0.00	29.857 
07:30	38.3	38.3	38.3	94	36.7	0	1	270	0.00	29.872 
07:35	38.5	38.5	38.5	94	36.9	0	1	270	0.00	29.872 
07:40	38.5	38.5	38.5	94	36.9	0	1	270	0.00	29.872 
07:45	38.5	38.5	38.5	94	36.9	0	0	---	0.00	29.872 
07:50	38.5	38.5	38.5	94	36.9	0	0	---	0.00	29.872 
07:55	38.3	38.3	38.3	94	36.7	0	1	270	0.00	29.872 
08:00	38.3	38.3	38.3	94	36.7	0	1	270	0.00	29.881 
08:05	38.3	38.3	38.3	94	36.7	0	0	---	0.00	29.881 
08:10	38.3	38.3	38.3	94	36.7	0	0	---	0.00	29.881 
08:15	38.3	38.3	38.3	94	36.7	0	1	270	0.00	29.883 
08:20	38.3	38.3	38.3	94	36.7	0	1	270	0.00	29.883 
08:25	38.3	38.3	38.3	94	36.7	0	1	270	0.00	29.883 
08:30	38.2	38.2	38.2	94	36.6	0	0	---	0.00	29.873 
08:35	38.2	38.2	38.2	94	36.6	0	1	270	0.00	29.873 
08:40	38.0	38.0	38.0	94	36.4	0	0	---	0.00	29.873 
08:45	38.2	38.2	38.2	94	36.6	0	1	270	0.00	29.889 
08:50	38.2	38.2	38.2	94	36.6	0	2	270	0.00	29.889 
08:55	38.2	38.2	38.2	94	36.6	0	1	45	0.00	29.889 
09:00	38.2	38.2	38.2	94	36.6	0	1	45	0.00	29.876 
09:05	38.0	38.0	38.0	94	36.4	0	1	45	0.00	29.876 
09:10	38.0	38.0	38.0	95	36.7	0	2	45	0.00	29.876 
09:15	38.2	38.2	38.2	94	36.6	0	1	45	0.00	29.888 
09:20	38.2	38.2	38.2	95	36.9	0	1	45	0.00	29.888 
09:25	38.2	38.2	38.2	95	36.9	0	0	---	0.00	29.888 
09:30	38.2	38.2	38.2	95	36.9	0	2	45	0.00	29.894 
09:35	38.2	38.2	38.2	95	36.9	0	1	45	0.00	29.894 
09:40	38.3	38.3	38.3	95	37.0	0	1	45	0.00	29.894 
09:45	38.3	38.3	38.3	95	37.0	0	2	45	0.00	29.900 
09:50	38.3	38.3	38.3	95	37.0	0	2	45	0.00	29.900 
09:55	38.3	38.3	38.3	95	37.0	0	2	45	0.00	29.900 
10:00	38.3	38.3	38.3	95	37.0	0	1	45	0.00	29.898 
10:05	38.3	38.3	38.3	95	37.0	0	1	45	0.00	29.898 
10:10	38.5	38.5	38.5	95	37.2	0	1	45	0.00	29.898 
10:15	38.5	38.5	38.5	95	37.2	0	1	45	0.00	29.904 
10:20	38.5	38.5	38.5	95	37.2	0	2	45	0.00	29.904 
10:25	38.5	38.5	38.5	95	37.2	0	2	45	0.00	29.904 
10:30	38.5	38.5	38.5	95	37.2	0	2	45	0.00	29.906 
10:35	38.5	38.5	38.5	95	37.2	0	2	0	0.00	29.906 
10:40	38.5	38.5	38.5	95	37.2	0	2	0	0.00	29.906 
10:45	38.5	38.5	38.5	95	37.2	0	2	0	0.00	29.908 
10:50	38.5	38.5	38.5	95	37.2	1	2	0	0.00	29.908 
10:55	38.5	38.5	38.5	95	37.2	1	3	270	0.00	29.908 
11:00	38.5	38.5	38.5	95	37.2	1	3	270	0.00	29.907 
11:05	38.5	38.5	38.5	95	37.2	0	1	270	0.00	29.907 
11:10	38.6	38.6	38.6	95	37.3	0	2	270	0.00	29.907 
11:15	38.6	38.6	38.6	95	37.3	1	3	270	0.00	29.917 
11:20	38.5	38.5	38.5	95	37.2	1	2	292	0.00	29.917 
11:25	38.3	38.3	38.3	95	37.0	0	2	292	0.00	29.917 
11:30	38.5	38.5	38.5	95	37.2	0	1	292	0.00	29.863 
11:35	38.6	38.6	38.6	95	37.3	0	1	292	0.00	29.863 
11:40	38.6	38.6	38.6	95	37.3	0	2	292	0.00	29.863 
11:45	38.6	38.6	38.6	95	37.3	1	2	292	0.00	29.904 
11:50	38.6	38.6	38.6	95	37.3	1	2	292	0.00	29.904 
11:55	38.5	38.5	38.5	95	37.2	1	3	292	0.00	29.904 
12:00	38.5	38.5	38.5	95	37.2	1	3	292	0.00	29.916 
12:05	38.5	38.5	38.5	95	37.2	1	3	292	0.00	29.916 
12:10	38.3	38.3	38.3	95	37.0	1	5	292	0.01	29.916 
12:15	38.5	38.5	38.5	95	37.2	0	3	270	0.00	29.905 
12:20	38.3	38.3	38.3	95	37.0	1	3	292	0.00	29.905 
12:25	38.3	38.3	38.3	95	37.0	0	3	292	0.00	29.905 
12:30	38.3	38.3	38.3	95	37.0	1	4	248	0.00	29.892 
12:35	38.3	38.3	38.3	95	37.0	1	3	248	0.00	29.892 
12:40	38.3	38.3	38.3	95	37.0	1	4	270	0.00	29.892 
12:45	38.2	38.2	38.2	95	36.9	1	4	270	0.00	29.903 
12:50	38.2	38.2	38.2	95	36.9	1	3	270	0.00	29.903 
12:55	38.0	38.0	38.0	95	36.7	1	2	270	0.00	29.903 
13:00	38.0	38.0	38.0	95	36.7	1	2	270	0.00	29.892 
13:05	37.9	37.9	37.9	95	36.6	1	4	315	0.00	29.892 
13:10	37.9	37.9	37.9	95	36.6	0	3	315	0.00	29.892 
13:15	38.0	38.0	38.0	95	36.7	0	2	315	0.00	29.875 
13:20	38.0	38.0	38.0	95	36.7	0	2	315	0.00	29.875 
13:25	38.0	38.0	38.0	95	36.7	0	1	315	0.00	29.875 
13:30	37.9	37.9	37.9	95	36.6	0	2	315	0.00	29.852 
13:35	37.9	37.9	37.9	95	36.6	0	1	315	0.00	29.852 
13:40	38.0	38.0	38.0	95	36.7	0	1	315	0.00	29.852 
13:45	38.0	38.0	38.0	95	36.7	0	2	315	0.00	29.831 
13:50	38.0	38.0	38.0	95	36.7	0	1	315	0.00	29.831 
13:55	38.0	38.0	38.0	95	36.7	0	1	315	0.00	29.831 
14:00	37.9	37.9	37.9	95	36.6	0	1	315	0.00	29.835 
14:05	37.8	37.8	37.8	95	36.5	0	2	315	0.00	29.835 
14:10	37.8	37.8	37.8	95	36.5	0	2	315	0.00	29.835 
14:15	37.8	37.8	37.8	95	36.5	0	1	315	0.00	29.844 
14:20	37.8	37.8	37.8	95	36.5	0	2	315	0.00	29.844 
14:25	37.8	37.8	37.8	95	36.5	0	2	315	0.00	29.844 
14:30	37.9	37.9	37.9	95	36.6	0	2	315	0.00	29.862 
14:35	37.9	37.9	37.9	95	36.6	0	2	315	0.00	29.862 
14:40	37.9	37.9	37.9	95	36.6	0	2	315	0.00	29.862 
14:45	37.8	37.8	37.8	95	36.5	1	3	315	0.00	29.886 
14:50	37.8	37.8	37.8	95	36.5	0	2	315	0.00	29.886 
14:55	37.8	37.8	37.8	95	36.5	0	2	315	0.00	29.886 
15:00	37.8	37.8	37.8	95	36.5	1	4	315	0.00	29.907 
15:05	37.9	37.9	37.9	95	36.6	0	3	248	0.01	29.907 
15:10	37.9	37.9	37.9	95	36.6	0	2	292	0.00	29.907 
15:15	37.8	37.8	37.8	95	36.5	1	3	315	0.00	29.915 
15:20	37.8	37.8	37.8	95	36.5	1	3	315	0.00	29.915 
15:25	37.6	37.6	37.6	95	36.3	1	4	338	0.01	29.915 
15:30	37.6	37.6	37.6	95	36.3	1	3	338	0.00	29.934 
15:35	37.6	37.6	37.6	95	36.3	1	2	338	0.01	29.934 
15:40	37.6	37.6	37.6	95	36.3	1	3	270	0.00	29.934 
15:45	37.6	37.6	37.6	95	36.3	0	2	270	0.01	29.957 
15:50	37.5	37.5	37.5	95	36.2	1	3	338	0.01	29.957 
15:55	37.5	37.5	37.5	95	36.2	0	3	270	0.00	29.957 
16:00	37.3	37.3	37.3	95	36.0	0	2	270	0.01	29.944 
16:05	37.3	37.3	37.3	95	36.0	1	4	315	0.00	29.944 
16:10	37.2	37.2	37.2	95	35.9	1	4	315	0.01	29.944 
16:15	37.0	37.0	37.0	95	35.7	1	3	315	0.01	29.946 
16:20	36.8	36.8	36.8	95	35.5	1	5	338	0.01	29.946 
16:25	36.6	36.6	36.6	94	35.0	1	4	0	0.00	29.946 
16:30	36.3	36.3	36.3	94	34.7	1	4	315	0.01	29.938 
16:35	36.2	36.2	36.2	94	34.6	1	3	270	0.01	29.938 
16:40	36.0	36.0	36.0	94	34.4	1	4	45	0.01	29.938 
16:45	35.6	35.6	35.6	94	34.0	1	5	22	0.01	29.964 
16:50	35.5	35.5	35.5	94	33.9	1	6	270	0.00	29.964 
16:55	35.3	35.3	35.3	94	33.7	0	2	270	0.00	29.964 
17:00	35.2	35.2	35.2	94	33.6	1	5	315	0.00	29.950 
17:05	34.9	34.9	34.9	94	33.4	1	3	292	0.00	29.950 
17:10	34.9	34.9	34.9	94	33.4	1	3	292	0.00	29.950 
17:15	34.9	34.9	34.9	94	33.4	1	3	292	0.00	29.939 
17:20	34.7	34.7	34.7	94	33.2	0	2	292	0.00	29.939 
17:25	34.6	34.6	34.6	94	33.1	0	4	292	0.00	29.939 
17:30	34.4	34.4	34.4	94	32.9	1	3	292	0.00	29.947 
17:35	34.6	34.6	34.6	94	33.1	1	3	248	0.00	29.947 
17:40	34.4	34.4	34.4	94	32.9	0	4	0	0.00	29.947 
17:45	34.3	34.3	34.3	94	32.8	1	4	270	0.00	29.957 
17:50	34.3	34.3	34.3	94	32.8	1	3	270	0.00	29.957 
17:55	34.3	34.3	34.3	94	32.8	1	3	292	0.00	29.957 
18:00	34.1	34.1	34.1	94	32.6	1	3	315	0.00	29.970 
18:05	34.1	34.1	34.1	94	32.6	1	3	315	0.00	29.970 
18:10	34.0	34.0	34.0	94	32.5	1	2	315	0.00	29.970 
18:15	34.0	34.0	34.0	94	32.5	0	2	315	0.01	29.992 
18:20	34.0	34.0	34.0	94	32.5	1	3	315	0.00	29.992 
18:25	33.8	33.8	33.8	94	32.3	0	2	315	0.00	29.992 
18:30	33.8	33.8	33.8	94	32.3	0	1	315	0.00	29.997 
18:35	33.7	33.7	33.7	94	32.2	0	1	315	0.00	29.997 
18:40	33.7	33.7	33.7	94	32.2	1	2	315	0.01	29.997 
18:45	33.5	33.5	33.5	94	32.0	1	3	315	0.00	30.001 
18:50	33.5	33.5	33.5	94	32.0	1	5	315	0.00	30.001 
18:55	33.4	33.4	33.4	94	31.9	1	4	0	0.00	30.001 
19:00	33.4	33.4	33.4	94	31.9	0	2	315	0.00	30.001 
19:05	33.2	33.2	33.2	94	31.7	1	2	315	0.00	30.001 
19:10	33.2	33.2	33.2	94	31.7	0	2	315	0.00	30.001 
19:15	33.2	33.2	33.2	94	31.7	0	2	292	0.00	30.004 
19:20	33.2	33.2	33.2	94	31.7	1	2	292	0.00	30.004 
19:25	33.2	33.2	33.2	94	31.7	0	2	292	0.00	30.004 
19:30	33.2	33.2	33.2	94	31.7	0	2	292	0.00	30.017 
19:35	33.4	33.4	33.4	94	31.9	1	2	292	0.00	30.017 
19:40	33.2	33.2	33.2	94	31.7	0	2	292	0.00	30.017 
19:45	33.2	33.2	33.2	94	31.7	1	3	292	0.00	30.020 
19:50	33.2	33.2	33.2	94	31.7	1	3	315	0.00	30.020 
19:55	33.1	33.1	33.1	94	31.6	1	3	270	0.00	30.020 
20:00	33.1	33.1	33.1	94	31.6	2	4	270	0.00	30.030 
20:05	32.9	32.9	32.9	94	31.4	3	5	270	0.00	30.030 
20:10	32.8	32.8	32.8	94	31.3	2	4	248	0.00	30.030 
20:15	32.7	32.7	32.7	94	31.2	2	5	270	0.00	30.033 
20:20	32.5	32.5	32.5	94	31.0	2	6	270	0.00	30.033 
20:25	32.4	32.4	32.4	94	30.9	2	5	270	0.00	30.033 
20:30	32.4	32.4	32.4	94	30.9	1	4	270	0.00	30.035 
20:35	32.1	32.1	32.1	94	30.6	3	6	270	0.00	30.035 
20:40	31.9	31.9	31.9	94	30.4	2	4	270	0.00	30.035 
20:45	31.9	31.9	31.9	94	30.4	2	4	248	0.00	30.040 
20:50	31.8	31.8	31.8	94	30.3	1	4	248	0.00	30.040 
20:55	31.8	31.8	31.8	93	30.0	1	3	338	0.00	30.040 
21:00	31.6	31.6	31.6	93	29.8	2	4	270	0.00	30.047 
21:05	31.6	31.6	31.6	93	29.8	1	4	270	0.00	30.047 
21:10	31.5	31.5	31.5	93	29.7	2	5	270	0.00	30.047 
21:15	31.3	31.3	31.3	93	29.5	2	4	270	0.00	30.059 
21:20	31.2	31.2	31.2	93	29.4	2	5	270	0.00	30.059 
21:25	31.2	31.2	31.2	93	29.4	3	8	270	0.00	30.059 
21:30	31.0	31.0	31.0	92	29.0	2	4	315	0.00	30.058 
21:35	31.0	31.0	31.0	92	29.0	2	5	292	0.00	30.058 
21:40	31.0	31.0	31.0	92	29.0	2	5	270	0.00	30.058 
21:45	31.0	31.0	31.0	92	29.0	3	5	270	0.00	30.070 
21:50	30.9	30.9	30.9	92	28.9	2	5	270	0.00	30.070 
21:55	30.7	30.7	30.7	92	28.7	2	4	248	0.00	30.070 
22:00	30.6	30.6	30.6	91	28.3	2	7	315	0.00	30.081 
22:05	30.4	30.4	30.4	91	28.1	2	6	270	0.00	30.081 
22:10	30.4	30.4	30.4	91	28.1	2	5	248	0.00	30.081 
22:15	30.3	30.3	30.3	91	28.0	3	5	270	0.00	30.082 
22:20	30.1	30.1	30.1	91	27.8	2	6	270	0.00	30.082 
22:25	30.0	30.0	30.0	91	27.7	3	7	270	0.00	30.082 
22:30	29.8	29.8	29.8	91	27.5	3	7	270	0.00	30.094 
22:35	29.5	29.5	29.5	90	26.9	3	6	270	0.00	30.094 
22:40	29.3	29.3	29.3	90	26.7	2	5	248	0.00	30.094 
22:45	29.0	29.0	29.0	90	26.4	3	7	270	0.00	30.099 
22:50	28.8	28.8	28.8	90	26.2	2	5	248	0.00	30.099 
22:55	28.7	28.7	28.7	89	25.9	2	5	270	0.00	30.099 
23:00	28.5	28.5	28.5	88	25.4	2	4	270	0.00	30.112 
23:05	28.2	28.2	28.2	88	25.1	2	5	270	0.00	30.112 
23:10	28.1	28.1	28.1	88	25.0	3	5	248	0.00	30.112 
23:15	28.1	28.1	28.1	87	24.7	2	5	270	0.00	30.122 
23:20	27.6	27.6	27.6	86	24.0	3	9	270	0.00	30.122 
23:25	27.2	27.2	27.2	86	23.6	3	6	292	0.00	30.122 
23:30	26.9	26.9	26.9	86	23.3	2	6	270	0.00	30.131 
23:35	26.7	26.7	26.7	86	23.1	2	5	248	0.00	30.131 
23:40	26.4	26.4	26.4	85	22.5	3	5	270	0.00	30.131 
23:45	26.1	26.1	26.1	85	22.2	2	5	270	0.00	30.143 
23:50	25.8	25.8	25.8	84	21.6	3	5	248	0.00	30.143 
23:55	25.4	25.4	25.4	84	21.3	3	7	248	0.00	30.143 

CoCoRaHS
IN-AL-39
A2 Web Hosting
Creative Commons License
GoDaddy
search engine by freefind advanced

loaded 2018-11-15 18:38:33 • last modified 2010-11-18 10:43:29
Privacy PolicyDisclaimer
• wx.awcolley.com is powered by PmWiki v.2002016 •
• all content (unless otherwise noted) © 2018 A W Colley